createdAt,value
2019-04-28T00:01:47.594Z,1.80
2019-04-28T00:04:28.162Z,1.50
2019-04-28T00:07:08.701Z,1.90
2019-04-28T00:09:51.150Z,1.70
2019-04-28T00:12:32.391Z,1.72
2019-04-28T00:15:12.746Z,1.70
2019-04-28T00:17:53.415Z,1.92
2019-04-28T00:20:53.260Z,2.35
2019-04-28T00:23:53.431Z,2.10
2019-04-28T00:29:51.850Z,1.65
2019-04-28T00:32:32.582Z,2.00
2019-04-28T00:35:13.434Z,1.42
2019-04-28T00:37:53.742Z,1.60
2019-04-28T00:40:34.176Z,1.98
2019-04-28T00:43:14.664Z,1.80
2019-04-28T00:45:55.407Z,2.02
2019-04-28T00:48:35.847Z,1.62
2019-04-28T00:51:16.507Z,1.95
2019-04-28T00:53:56.939Z,1.52
2019-04-28T00:56:37.541Z,2.25
2019-04-28T00:59:18.287Z,1.47
2019-04-28T01:02:01.674Z,1.70
2019-04-28T01:04:42.602Z,1.65
2019-04-28T01:07:23.189Z,1.60
2019-04-28T01:10:04.006Z,2.30
2019-04-28T01:12:46.608Z,1.62
2019-04-28T01:21:55.806Z,1.35
2019-04-28T01:24:36.347Z,1.02
2019-04-28T01:27:36.638Z,1.67
2019-04-28T01:30:40.108Z,1.37
2019-04-28T01:33:29.501Z,1.35
2019-04-28T01:36:11.168Z,1.50
2019-04-28T01:38:51.947Z,1.62
2019-04-28T01:41:32.599Z,1.42
2019-04-28T01:44:12.962Z,1.20
2019-04-28T01:46:53.503Z,1.62
2019-04-28T01:49:34.417Z,1.60
2019-04-28T01:52:15.435Z,1.37
2019-04-28T01:54:55.699Z,1.55
2019-04-28T01:57:36.304Z,1.05
2019-04-28T02:00:23.138Z,1.70
2019-04-28T02:03:02.043Z,1.45
2019-04-28T02:05:42.655Z,1.40
2019-04-28T02:08:23.204Z,1.70
2019-04-28T02:11:03.702Z,1.10
2019-04-28T02:13:44.071Z,1.32
2019-04-28T02:19:06.731Z,1.50
2019-04-28T02:24:34.979Z,1.25
2019-04-28T02:27:15.687Z,1.12
2019-04-28T02:29:56.491Z,1.27
2019-04-28T02:32:40.528Z,1.42
2019-04-28T02:35:21.355Z,1.47
2019-04-28T02:38:02.632Z,1.72
2019-04-28T02:43:30.770Z,1.47
2019-04-28T02:46:12.180Z,1.27
2019-04-28T02:48:54.018Z,1.50
2019-04-28T02:54:21.661Z,1.50
2019-04-28T02:57:02.028Z,1.65
2019-04-28T02:59:44.863Z,1.55
2019-04-28T03:02:24.957Z,1.40
2019-04-28T03:05:05.439Z,1.42
2019-04-28T03:07:46.050Z,1.32
2019-04-28T03:10:27.199Z,1.30
2019-04-28T03:13:10.834Z,1.62
2019-04-28T03:15:51.754Z,1.47
2019-04-28T03:18:32.966Z,1.32
2019-04-28T03:21:16.631Z,1.17
2019-04-28T03:23:57.676Z,1.52
2019-04-28T03:29:46.186Z,1.30
2019-04-28T03:32:44.490Z,1.65
2019-04-28T03:35:13.624Z,1.45
2019-04-28T03:37:53.999Z,1.70
2019-04-28T03:40:35.308Z,1.67
2019-04-28T03:43:15.604Z,1.70
2019-04-28T03:46:03.543Z,1.50
2019-04-28T03:48:43.599Z,1.40
2019-04-28T03:51:24.504Z,1.22
2019-04-28T03:54:05.261Z,1.42
2019-04-28T03:56:46.145Z,1.60
2019-04-28T03:59:27.334Z,2.20
2019-04-28T04:02:07.628Z,1.57
2019-04-28T04:04:48.279Z,2.08
2019-04-28T04:07:31.073Z,1.65
2019-04-28T04:13:14.727Z,1.30
2019-04-28T04:16:14.980Z,1.85
2019-04-28T04:18:56.842Z,1.22
2019-04-28T04:21:40.470Z,2.33
2019-04-28T04:24:20.621Z,2.42
2019-04-28T04:27:01.548Z,2.02
2019-04-28T04:29:43.677Z,2.27
2019-04-28T04:32:27.147Z,2.60
2019-04-28T04:35:09.685Z,2.50
2019-04-28T04:37:50.444Z,2.50
2019-04-28T04:43:13.705Z,2.27
2019-04-28T04:49:10.532Z,2.67
2019-04-28T04:51:51.002Z,2.47
2019-04-28T04:54:33.657Z,2.60
2019-04-28T04:57:14.727Z,2.70
2019-04-28T04:59:55.436Z,2.20
2019-04-28T05:05:36.406Z,2.50
2019-04-28T05:14:07.580Z,2.45
2019-04-28T05:16:49.745Z,3.00
2019-04-28T05:19:31.166Z,2.87
2019-04-28T05:22:12.503Z,3.00
2019-04-28T05:28:03.159Z,3.10
2019-04-28T05:30:44.555Z,3.00
2019-04-28T05:33:33.310Z,3.47
2019-04-28T05:36:11.846Z,3.37
2019-04-28T05:38:52.798Z,3.00
2019-04-28T05:41:33.712Z,3.37
2019-04-28T05:44:14.851Z,4.87
2019-04-28T05:46:55.571Z,4.33
2019-04-28T05:52:37.666Z,4.60
2019-04-28T05:58:00.541Z,4.58
2019-04-28T06:03:54.854Z,4.72
2019-04-28T06:09:20.263Z,5.40
2019-04-28T06:14:46.322Z,4.72
2019-04-28T06:20:12.314Z,5.10
2019-04-28T06:22:53.347Z,5.45
2019-04-28T06:28:22.996Z,5.62
2019-04-28T06:50:39.799Z,5.25
2019-04-28T06:53:20.299Z,4.65
2019-04-28T07:04:27.685Z,4.47
2019-04-28T07:07:08.816Z,4.15
2019-04-28T07:09:49.463Z,3.58
2019-04-28T07:12:30.295Z,2.85
2019-04-28T07:15:10.575Z,3.77
2019-04-28T07:17:51.062Z,2.98
2019-04-28T07:20:50.579Z,3.42
2019-04-28T07:23:31.947Z,2.83
2019-04-28T07:26:12.772Z,3.22
2019-04-28T07:28:53.211Z,3.15
2019-04-28T07:31:33.835Z,2.80
2019-04-28T07:34:14.379Z,2.95
2019-04-28T07:36:54.927Z,2.62
2019-04-28T07:39:35.523Z,2.50
2019-04-28T07:42:15.982Z,3.25
2019-04-28T07:44:57.129Z,3.00
2019-04-28T07:47:38.600Z,2.35
2019-04-28T07:50:19.395Z,2.45
2019-04-28T07:56:06.956Z,1.98
2019-04-28T07:58:47.755Z,2.37
2019-04-28T08:01:28.973Z,2.65
2019-04-28T08:04:09.599Z,2.65
2019-04-28T08:06:49.927Z,2.47
2019-04-28T08:09:30.767Z,2.35
2019-04-28T08:12:11.381Z,2.62
2019-04-28T08:14:51.883Z,1.85
2019-04-28T08:17:32.718Z,2.17
2019-04-28T08:20:13.383Z,2.70
2019-04-28T08:22:53.979Z,2.77
2019-04-28T08:25:35.092Z,2.33
2019-04-28T08:28:16.185Z,2.05
2019-04-28T08:30:56.618Z,2.25
2019-04-28T08:34:03.014Z,2.72
2019-04-28T08:36:45.039Z,2.20
2019-04-28T08:39:26.860Z,2.67
2019-04-28T08:42:08.023Z,2.05
2019-04-28T08:44:48.861Z,1.70
2019-04-28T08:50:26.339Z,1.37
2019-04-28T08:53:07.260Z,1.98
2019-04-28T08:55:48.408Z,1.82
2019-04-28T08:58:29.223Z,2.12
2019-04-28T09:01:09.556Z,1.98
2019-04-28T09:03:50.040Z,2.55
2019-04-28T09:06:30.927Z,2.20
2019-04-28T09:09:15.052Z,2.58
2019-04-28T09:11:55.551Z,2.52
2019-04-28T09:14:36.293Z,2.83
2019-04-28T09:17:16.752Z,2.33
2019-04-28T09:19:57.706Z,3.17
2019-04-28T09:22:38.318Z,2.90
2019-04-28T09:28:00.991Z,3.08
2019-04-28T09:30:41.575Z,3.42
2019-04-28T09:33:22.231Z,2.62
2019-04-28T09:36:03.247Z,3.30
2019-04-28T09:38:43.859Z,3.20
2019-04-28T09:41:24.495Z,2.90
2019-04-28T09:44:11.947Z,3.40
2019-04-28T09:52:20.419Z,3.20
2019-04-28T09:55:01.014Z,3.20
2019-04-28T10:00:24.347Z,4.53
2019-04-28T10:05:59.693Z,4.62
2019-04-28T10:08:41.875Z,3.62
2019-04-28T10:14:11.267Z,3.85
2019-04-28T10:16:52.209Z,3.35
2019-04-28T10:19:32.815Z,3.60
2019-04-28T10:27:44.859Z,2.42
2019-04-28T10:58:32.466Z,3.12
2019-04-28T11:01:13.218Z,2.90
2019-04-28T11:03:55.491Z,2.80
2019-04-28T11:06:36.304Z,3.12
2019-04-28T11:12:14.982Z,2.72
2019-04-28T11:14:55.699Z,2.72
2019-04-28T11:17:36.419Z,3.40
2019-04-28T11:20:17.431Z,2.77
2019-04-28T11:22:58.043Z,2.90
2019-04-28T11:25:38.471Z,3.10
2019-04-28T11:28:19.681Z,2.00
2019-04-28T11:31:00.155Z,2.67
2019-04-28T11:36:50.122Z,2.47
2019-04-28T11:39:37.011Z,2.37
2019-04-28T11:42:18.218Z,2.70
2019-04-28T11:44:59.116Z,2.33
2019-04-28T11:47:40.331Z,1.98
2019-04-28T11:50:20.783Z,1.82
2019-04-28T11:53:02.249Z,1.70
2019-04-28T11:55:42.918Z,1.80
2019-04-28T11:58:23.539Z,2.27
2019-04-28T12:01:05.288Z,2.55
2019-04-28T12:03:45.878Z,2.22
2019-04-28T12:06:26.275Z,1.95
2019-04-28T12:09:25.926Z,2.00
2019-04-28T12:12:09.374Z,2.80
2019-04-28T12:18:28.216Z,2.25
2019-04-28T12:21:08.771Z,2.17
2019-04-28T12:23:49.089Z,2.12
2019-04-28T12:26:30.075Z,2.45
2019-04-28T12:29:10.518Z,2.40
2019-04-28T12:31:50.922Z,2.58
2019-04-28T12:34:31.599Z,2.47
2019-04-28T12:37:12.514Z,2.40
2019-04-28T12:39:53.528Z,2.60
2019-04-28T12:42:34.568Z,2.65
2019-04-28T12:48:01.324Z,2.10
2019-04-28T12:53:31.277Z,2.12
2019-04-28T12:56:13.401Z,2.30
2019-04-28T12:58:57.704Z,2.12
2019-04-28T13:04:38.124Z,2.05
2019-04-28T13:07:19.461Z,2.00
2019-04-28T13:09:59.955Z,2.02
2019-04-28T13:12:40.287Z,2.25
2019-04-28T13:15:21.075Z,1.87
2019-04-28T13:18:02.281Z,2.10
2019-04-28T13:20:42.882Z,1.95
2019-04-28T13:23:23.292Z,2.05
2019-04-28T13:26:03.999Z,2.10
2019-04-28T13:28:44.563Z,1.52
2019-04-28T13:31:25.564Z,1.75
2019-04-28T13:34:05.966Z,1.65
2019-04-28T13:36:47.215Z,1.45
2019-04-28T13:39:33.291Z,1.45
2019-04-28T13:42:14.682Z,1.50
2019-04-28T13:48:06.443Z,1.17
2019-04-28T13:50:48.940Z,1.50
2019-04-28T13:53:29.975Z,1.12
2019-04-28T13:56:11.083Z,1.35
2019-04-28T13:58:57.733Z,1.17
2019-04-28T14:04:48.815Z,1.40
2019-04-28T14:07:29.679Z,1.35
2019-04-28T14:10:10.345Z,1.10
2019-04-28T14:12:51.225Z,1.22
2019-04-28T14:15:31.705Z,1.02
2019-04-28T14:18:12.653Z,0.93
2019-04-28T14:23:36.051Z,1.17
2019-04-28T14:28:59.005Z,6.58
2019-04-28T14:31:39.859Z,1.10
2019-04-28T14:48:24.680Z,0.90
2019-04-28T14:51:05.523Z,0.78
2019-04-28T14:53:46.482Z,0.85
2019-04-28T14:56:26.960Z,0.90
2019-04-28T14:59:07.733Z,1.00
2019-04-28T15:02:07.572Z,0.60
2019-04-28T15:05:10.532Z,0.78
2019-04-28T15:08:09.929Z,1.00
2019-04-28T15:11:10.124Z,4.37
2019-04-28T15:13:51.326Z,0.70
2019-04-28T15:16:32.479Z,0.80
2019-04-28T15:19:13.720Z,0.80
2019-04-28T15:21:54.733Z,0.90
2019-04-28T15:27:01.843Z,0.70
2019-04-28T15:29:42.371Z,0.70
2019-04-28T15:32:23.035Z,0.90
2019-04-28T15:35:03.581Z,0.80
2019-04-28T15:37:44.244Z,0.70
2019-04-28T15:40:25.621Z,0.60
2019-04-28T15:43:06.187Z,0.80
2019-04-28T15:45:46.643Z,0.80
2019-04-28T15:48:26.966Z,0.60
2019-04-28T15:51:08.192Z,0.70
2019-04-28T15:53:48.851Z,0.60
2019-04-28T15:56:48.519Z,0.68
2019-04-28T15:59:32.463Z,0.68
2019-04-28T16:02:12.807Z,0.70
2019-04-28T16:04:53.309Z,0.65
2019-04-28T16:07:34.358Z,0.90
2019-04-28T16:10:14.931Z,0.88
2019-04-28T16:12:55.819Z,0.62
2019-04-28T16:15:36.594Z,0.60
2019-04-28T16:18:17.155Z,0.50
2019-04-28T16:20:57.967Z,0.50
2019-04-28T16:40:22.780Z,0.57
2019-04-28T16:43:03.135Z,0.40
2019-04-28T16:48:39.862Z,0.62
2019-04-28T16:51:21.104Z,0.70
2019-04-28T16:59:54.087Z,0.60
2019-04-28T17:02:42.471Z,0.60
2019-04-28T17:05:23.415Z,0.47
2019-04-28T17:08:04.228Z,0.50
2019-04-28T17:10:44.551Z,0.60
2019-04-28T17:13:25.671Z,0.78
2019-04-28T17:16:06.445Z,0.60
2019-04-28T17:18:47.570Z,0.90
2019-04-28T17:21:28.618Z,0.85
2019-04-28T17:24:09.830Z,0.70
2019-04-28T17:26:50.310Z,0.45
2019-04-28T17:29:31.495Z,0.90
2019-04-28T17:32:12.619Z,1.05
2019-04-28T17:34:53.287Z,0.70
2019-04-28T17:37:34.147Z,0.80
2019-04-28T17:40:17.026Z,0.72
2019-04-28T17:42:58.199Z,0.68
2019-04-28T17:45:40.563Z,0.93
2019-04-28T17:48:26.450Z,1.37
2019-04-28T17:51:06.889Z,1.27
2019-04-28T17:56:29.551Z,1.07
2019-04-28T17:59:10.396Z,0.95
2019-04-28T18:04:34.727Z,0.98
2019-04-28T18:07:20.686Z,0.98
2019-04-28T18:10:01.126Z,0.90
2019-04-28T18:15:27.687Z,2.52
2019-04-28T18:23:47.199Z,0.85
2019-04-28T18:26:31.467Z,1.40
2019-04-28T18:31:57.075Z,0.72
2019-04-28T18:54:02.303Z,0.33
2019-04-28T18:59:36.879Z,0.55
2019-04-28T19:02:17.475Z,0.40
2019-04-28T19:16:55.880Z,0.33
2019-04-28T19:19:38.039Z,0.28
2019-04-28T19:22:18.619Z,0.30
2019-04-28T19:24:59.618Z,0.40
2019-04-28T19:27:40.025Z,0.20
2019-04-28T19:30:20.540Z,0.30
2019-04-28T19:33:01.136Z,0.40
2019-04-28T19:35:41.519Z,0.50
2019-04-28T19:38:22.631Z,0.42
2019-04-28T19:41:03.795Z,0.40
2019-04-28T19:43:44.476Z,0.40
2019-04-28T19:46:23.418Z,0.50
2019-04-28T19:49:11.594Z,0.33
2019-04-28T19:51:59.471Z,0.42
2019-04-28T19:55:06.660Z,0.30
2019-04-28T19:58:13.603Z,0.40
2019-04-28T20:03:59.489Z,0.40
2019-04-28T20:06:47.826Z,0.40
2019-04-28T20:09:35.687Z,0.50
2019-04-28T20:12:23.538Z,0.80
2019-04-28T20:15:11.393Z,0.50
2019-04-28T20:17:59.259Z,0.75
2019-04-28T20:20:47.105Z,0.60
2019-04-28T20:23:34.967Z,0.55
2019-04-28T20:26:22.851Z,0.60
2019-04-28T20:29:10.935Z,0.70
2019-04-28T20:31:59.267Z,0.80
2019-04-28T20:34:47.126Z,0.80
2019-04-28T20:46:41.047Z,1.20
2019-04-28T20:49:29.126Z,1.02
2019-04-28T20:52:17.260Z,1.40
2019-04-28T20:54:57.811Z,1.50
2019-04-28T20:57:38.274Z,1.40
2019-04-28T21:03:00.884Z,1.60
2019-04-28T21:08:31.252Z,1.45
2019-04-28T21:11:12.300Z,1.15
2019-04-28T21:13:52.918Z,1.17
2019-04-28T21:16:34.046Z,0.90
2019-04-28T21:19:14.985Z,0.90
2019-04-28T21:21:55.379Z,1.15
2019-04-28T21:24:36.404Z,1.02
2019-04-28T21:27:17.391Z,1.00
2019-04-28T21:29:57.863Z,0.95
2019-04-28T21:32:38.531Z,1.10
2019-04-28T21:35:19.240Z,1.00
2019-04-28T21:37:59.964Z,0.80
2019-04-28T21:40:41.769Z,0.95
2019-04-28T21:43:41.712Z,0.90
2019-04-28T21:46:49.182Z,0.80
2019-04-28T21:49:39.674Z,1.02
2019-04-28T21:57:57.306Z,0.93
2019-04-28T22:00:41.667Z,0.80
2019-04-28T22:03:23.796Z,1.00
2019-04-28T22:06:04.763Z,0.90
2019-04-28T22:08:45.172Z,1.25
2019-04-28T22:11:25.912Z,1.50
2019-04-28T22:14:07.084Z,1.20
2019-04-28T22:19:29.965Z,1.32
2019-04-28T22:25:00.627Z,1.35
2019-04-28T23:04:35.118Z,1.82
2019-04-28T23:07:15.502Z,1.98
2019-04-28T23:09:56.117Z,1.50
2019-04-28T23:12:36.718Z,2.08
2019-04-28T23:15:17.535Z,1.77
2019-04-28T23:17:58.112Z,1.80
2019-04-28T23:20:40.611Z,2.30
2019-04-28T23:23:21.802Z,2.00
2019-04-28T23:26:03.138Z,2.02
2019-04-28T23:28:43.594Z,2.30
2019-04-28T23:31:24.623Z,2.42
2019-04-28T23:34:05.615Z,1.72
2019-04-28T23:36:46.270Z,1.75
2019-04-28T23:39:27.166Z,2.05
2019-04-28T23:45:07.666Z,1.85
2019-04-28T23:47:48.359Z,2.17
2019-04-28T23:50:35.686Z,2.00
2019-04-28T23:53:17.996Z,2.35
2019-04-28T23:55:59.027Z,1.90
2019-04-28T23:58:39.539Z,1.95
